Cadys Falls, Vermont
Current Conditions -  °F | °C
As of 9:54 PM on Friday 19 Dec 2014 (Local Time) from KMVL Reporting Station
Overcast Overcast  
Wind Chill: 20°   Ceiling: 1600
Heat Index: 20°   Visibility: 10mi
Dew Point: 15°   Wind: 3mph
Humidity: 81%   Direction: 30°NNE
Pressure: 30.2"   Gusts: NA
Location:  44.5482°N, 72.6315°W
Report Text: KMVL 200254Z AUTO 03003KT 10SM OVC016 M07/M09 A3020 RMK AO2 SLP240 T10671094 51010 TSNO
Loading
Personal Weather Stations






























Interactive Weather Map New forecast layout! Learn more

10-Day Weather Forecast

Advertisements
Track Severe Weather on mobile